sensor_id;sensor_type;location;lat;lon;timestamp;temperature;humidity
7658;DHT22;8462;53.156;8.220;2023-03-24T00:00:17;13.80;92.00
7658;DHT22;8462;53.156;8.220;2023-03-24T00:02:47;13.80;92.20
7658;DHT22;8462;53.156;8.220;2023-03-24T00:05:15;13.80;92.20
7658;DHT22;8462;53.156;8.220;2023-03-24T00:07:43;13.80;92.30
7658;DHT22;8462;53.156;8.220;2023-03-24T00:10:12;13.80;92.40
7658;DHT22;8462;53.156;8.220;2023-03-24T00:12:40;13.80;92.50
7658;DHT22;8462;53.156;8.220;2023-03-24T00:15:11;13.70;92.60
7658;DHT22;8462;53.156;8.220;2023-03-24T00:17:38;13.70;92.70
7658;DHT22;8462;53.156;8.220;2023-03-24T00:20:08;13.70;92.80
7658;DHT22;8462;53.156;8.220;2023-03-24T00:22:39;13.70;92.90
7658;DHT22;8462;53.156;8.220;2023-03-24T00:25:08;13.70;92.80
7658;DHT22;8462;53.156;8.220;2023-03-24T00:27:37;13.70;92.90
7658;DHT22;8462;53.156;8.220;2023-03-24T00:30:06;13.70;93.10
7658;DHT22;8462;53.156;8.220;2023-03-24T00:32:34;13.70;93.00
7658;DHT22;8462;53.156;8.220;2023-03-24T00:35:04;13.70;93.10
7658;DHT22;8462;53.156;8.220;2023-03-24T00:37:33;13.70;93.20
7658;DHT22;8462;53.156;8.220;2023-03-24T00:40:02;13.70;93.20
7658;DHT22;8462;53.156;8.220;2023-03-24T00:42:32;13.70;93.40
7658;DHT22;8462;53.156;8.220;2023-03-24T00:45:01;13.60;93.50
7658;DHT22;8462;53.156;8.220;2023-03-24T00:47:30;13.60;93.60
7658;DHT22;8462;53.156;8.220;2023-03-24T00:50:02;13.60;93.70
7658;DHT22;8462;53.156;8.220;2023-03-24T00:52:30;13.60;93.90
7658;DHT22;8462;53.156;8.220;2023-03-24T00:55:00;13.60;93.90
7658;DHT22;8462;53.156;8.220;2023-03-24T00:57:28;13.60;94.00
7658;DHT22;8462;53.156;8.220;2023-03-24T01:00:02;13.60;93.90
7658;DHT22;8462;53.156;8.220;2023-03-24T01:02:37;13.60;93.90
7658;DHT22;8462;53.156;8.220;2023-03-24T01:05:04;13.70;93.90
7658;DHT22;8462;53.156;8.220;2023-03-24T01:07:32;13.60;93.90
7658;DHT22;8462;53.156;8.220;2023-03-24T01:09:59;13.60;93.80
7658;DHT22;8462;53.156;8.220;2023-03-24T01:12:28;13.60;94.20
7658;DHT22;8462;53.156;8.220;2023-03-24T01:14:56;13.60;94.20
7658;DHT22;8462;53.156;8.220;2023-03-24T01:17:25;13.60;94.30
7658;DHT22;8462;53.156;8.220;2023-03-24T01:19:54;13.60;94.30
7658;DHT22;8462;53.156;8.220;2023-03-24T01:22:22;13.60;94.30
7658;DHT22;8462;53.156;8.220;2023-03-24T01:24:52;13.60;94.40
7658;DHT22;8462;53.156;8.220;2023-03-24T01:27:19;13.60;94.40
7658;DHT22;8462;53.156;8.220;2023-03-24T01:29:46;13.60;94.50
7658;DHT22;8462;53.156;8.220;2023-03-24T01:32:13;13.60;94.60
7658;DHT22;8462;53.156;8.220;2023-03-24T01:34:41;13.60;94.70
7658;DHT22;8462;53.156;8.220;2023-03-24T01:37:08;13.60;94.90
7658;DHT22;8462;53.156;8.220;2023-03-24T01:39:35;13.60;95.20
7658;DHT22;8462;53.156;8.220;2023-03-24T01:42:02;13.50;95.60
7658;DHT22;8462;53.156;8.220;2023-03-24T01:44:31;13.50;98.40
7658;DHT22;8462;53.156;8.220;2023-03-24T01:47:00;13.50;99.40
7658;DHT22;8462;53.156;8.220;2023-03-24T01:49:30;13.50;99.90
7658;DHT22;8462;53.156;8.220;2023-03-24T01:52:02;13.50;99.90
7658;DHT22;8462;53.156;8.220;2023-03-24T01:54:33;13.50;99.90
7658;DHT22;8462;53.156;8.220;2023-03-24T01:57:06;13.60;99.90
7658;DHT22;8462;53.156;8.220;2023-03-24T01:59:39;13.60;99.90
7658;DHT22;8462;53.156;8.220;2023-03-24T02:02:34;13.60;99.90
7658;DHT22;8462;53.156;8.220;2023-03-24T02:05:03;13.60;99.90
7658;DHT22;8462;53.156;8.220;2023-03-24T02:07:42;13.50;99.90
7658;DHT22;8462;53.156;8.220;2023-03-24T02:10:14;13.50;99.90
7658;DHT22;8462;53.156;8.220;2023-03-24T02:12:42;13.60;99.90
7658;DHT22;8462;53.156;8.220;2023-03-24T02:15:12;13.60;99.90
7658;DHT22;8462;53.156;8.220;2023-03-24T02:17:49;13.60;99.90
7658;DHT22;8462;53.156;8.220;2023-03-24T02:23:51;13.60;99.90
7658;DHT22;8462;53.156;8.220;2023-03-24T02:32:50;13.60;99.90
7658;DHT22;8462;53.156;8.220;2023-03-24T02:38:36;13.70;99.90
7658;DHT22;8462;53.156;8.220;2023-03-24T02:41:11;13.70;99.90
7658;DHT22;8462;53.156;8.220;2023-03-24T02:43:47;13.60;99.90
7658;DHT22;8462;53.156;8.220;2023-03-24T02:46:22;13.70;99.90
7658;DHT22;8462;53.156;8.220;2023-03-24T02:49:02;13.70;99.90
7658;DHT22;8462;53.156;8.220;2023-03-24T02:51:36;13.70;99.90
7658;DHT22;8462;53.156;8.220;2023-03-24T02:54:08;13.80;99.90
7658;DHT22;8462;53.156;8.220;2023-03-24T02:56:42;13.80;99.90
7658;DHT22;8462;53.156;8.220;2023-03-24T02:59:32;13.80;99.90
7658;DHT22;8462;53.156;8.220;2023-03-24T03:02:05;13.80;99.90
7658;DHT22;8462;53.156;8.220;2023-03-24T03:04:40;13.80;99.90
7658;DHT22;8462;53.156;8.220;2023-03-24T03:07:11;13.90;99.90
7658;DHT22;8462;53.156;8.220;2023-03-24T03:09:48;13.90;99.90
7658;DHT22;8462;53.156;8.220;2023-03-24T03:12:19;13.90;99.90
7658;DHT22;8462;53.156;8.220;2023-03-24T03:14:50;13.90;99.90
7658;DHT22;8462;53.156;8.220;2023-03-24T03:17:21;13.90;99.90
7658;DHT22;8462;53.156;8.220;2023-03-24T03:19:53;13.90;99.90
7658;DHT22;8462;53.156;8.220;2023-03-24T03:22:25;14.00;99.90
7658;DHT22;8462;53.156;8.220;2023-03-24T03:24:56;14.00;99.90
7658;DHT22;8462;53.156;8.220;2023-03-24T03:27:29;14.00;99.90
7658;DHT22;8462;53.156;8.220;2023-03-24T03:30:00;14.00;99.90
7658;DHT22;8462;53.156;8.220;2023-03-24T03:32:30;14.10;99.90
7658;DHT22;8462;53.156;8.220;2023-03-24T03:35:01;14.10;99.90
7658;DHT22;8462;53.156;8.220;2023-03-24T03:37:35;14.10;99.90
7658;DHT22;8462;53.156;8.220;2023-03-24T03:40:08;14.10;99.90
7658;DHT22;8462;53.156;8.220;2023-03-24T03:42:43;14.10;99.90
7658;DHT22;8462;53.156;8.220;2023-03-24T03:45:11;14.10;99.90
7658;DHT22;8462;53.156;8.220;2023-03-24T03:47:39;14.20;99.90
7658;DHT22;8462;53.156;8.220;2023-03-24T03:50:08;14.10;99.90
7658;DHT22;8462;53.156;8.220;2023-03-24T03:52:36;14.20;99.90
7658;DHT22;8462;53.156;8.220;2023-03-24T03:55:06;14.20;99.90
7658;DHT22;8462;53.156;8.220;2023-03-24T03:57:34;14.20;99.90
7658;DHT22;8462;53.156;8.220;2023-03-24T04:00:19;14.20;99.90
7658;DHT22;8462;53.156;8.220;2023-03-24T04:03:19;14.20;99.90
7658;DHT22;8462;53.156;8.220;2023-03-24T04:05:52;14.20;99.90
7658;DHT22;8462;53.156;8.220;2023-03-24T04:08:34;14.20;99.90
7658;DHT22;8462;53.156;8.220;2023-03-24T04:11:39;14.20;99.90
7658;DHT22;8462;53.156;8.220;2023-03-24T04:18:24;14.20;99.90
7658;DHT22;8462;53.156;8.220;2023-03-24T04:21:06;14.20;99.90
7658;DHT22;8462;53.156;8.220;2023-03-24T04:23:44;14.10;99.90
7658;DHT22;8462;53.156;8.220;2023-03-24T04:26:20;14.10;99.90
7658;DHT22;8462;53.156;8.220;2023-03-24T04:29:03;14.20;99.90
7658;DHT22;8462;53.156;8.220;2023-03-24T04:31:33;14.20;99.90
7658;DHT22;8462;53.156;8.220;2023-03-24T04:34:09;14.20;99.90
7658;DHT22;8462;53.156;8.220;2023-03-24T04:36:43;14.30;99.90
7658;DHT22;8462;53.156;8.220;2023-03-24T04:39:36;14.30;99.90
7658;DHT22;8462;53.156;8.220;2023-03-24T04:42:10;14.30;99.90
7658;DHT22;8462;53.156;8.220;2023-03-24T04:44:39;14.30;99.90
7658;DHT22;8462;53.156;8.220;2023-03-24T04:47:29;14.30;99.90
7658;DHT22;8462;53.156;8.220;2023-03-24T04:50:34;14.30;99.90
7658;DHT22;8462;53.156;8.220;2023-03-24T04:53:07;14.30;99.90
7658;DHT22;8462;53.156;8.220;2023-03-24T04:56:01;14.30;99.90
7658;DHT22;8462;53.156;8.220;2023-03-24T04:58:48;14.30;99.90
7658;DHT22;8462;53.156;8.220;2023-03-24T05:01:15;14.30;99.90
7658;DHT22;8462;53.156;8.220;2023-03-24T05:03:56;14.30;99.90
7658;DHT22;8462;53.156;8.220;2023-03-24T05:06:25;14.30;99.90
7658;DHT22;8462;53.156;8.220;2023-03-24T05:08:52;14.30;99.90
7658;DHT22;8462;53.156;8.220;2023-03-24T05:11:22;14.40;99.90
7658;DHT22;8462;53.156;8.220;2023-03-24T05:13:58;14.40;99.90
7658;DHT22;8462;53.156;8.220;2023-03-24T05:16:26;14.40;99.90
7658;DHT22;8462;53.156;8.220;2023-03-24T05:18:57;14.40;99.90
7658;DHT22;8462;53.156;8.220;2023-03-24T05:21:26;14.40;99.90
7658;DHT22;8462;53.156;8.220;2023-03-24T05:23:53;14.40;99.90
7658;DHT22;8462;53.156;8.220;2023-03-24T05:26:20;14.40;99.90
7658;DHT22;8462;53.156;8.220;2023-03-24T05:29:03;14.40;99.90
7658;DHT22;8462;53.156;8.220;2023-03-24T05:31:31;14.40;99.90
7658;DHT22;8462;53.156;8.220;2023-03-24T05:34:08;14.30;99.90
7658;DHT22;8462;53.156;8.220;2023-03-24T05:36:55;14.20;99.90
7658;DHT22;8462;53.156;8.220;2023-03-24T05:39:22;14.10;99.90
7658;DHT22;8462;53.156;8.220;2023-03-24T05:42:06;14.10;99.90
7658;DHT22;8462;53.156;8.220;2023-03-24T05:44:33;14.00;99.90
7658;DHT22;8462;53.156;8.220;2023-03-24T05:47:06;14.00;99.90
7658;DHT22;8462;53.156;8.220;2023-03-24T05:49:33;14.00;99.90
7658;DHT22;8462;53.156;8.220;2023-03-24T05:52:01;14.00;99.90
7658;DHT22;8462;53.156;8.220;2023-03-24T05:54:28;14.00;99.90
7658;DHT22;8462;53.156;8.220;2023-03-24T05:57:07;13.90;99.90
7658;DHT22;8462;53.156;8.220;2023-03-24T05:59:47;13.90;99.90
7658;DHT22;8462;53.156;8.220;2023-03-24T06:02:40;13.80;99.90
7658;DHT22;8462;53.156;8.220;2023-03-24T06:05:21;13.80;99.90
7658;DHT22;8462;53.156;8.220;2023-03-24T06:07:49;13.70;99.90
7658;DHT22;8462;53.156;8.220;2023-03-24T06:10:16;13.60;99.90
7658;DHT22;8462;53.156;8.220;2023-03-24T06:12:48;13.60;99.90
7658;DHT22;8462;53.156;8.220;2023-03-24T06:15:16;13.50;99.90
7658;DHT22;8462;53.156;8.220;2023-03-24T06:17:45;13.50;99.90
7658;DHT22;8462;53.156;8.220;2023-03-24T06:20:26;13.60;99.90
7658;DHT22;8462;53.156;8.220;2023-03-24T06:23:01;13.60;99.90
7658;DHT22;8462;53.156;8.220;2023-03-24T06:25:35;13.60;99.90
7658;DHT22;8462;53.156;8.220;2023-03-24T06:28:13;13.60;99.90
7658;DHT22;8462;53.156;8.220;2023-03-24T06:30:43;13.60;99.90
7658;DHT22;8462;53.156;8.220;2023-03-24T06:33:12;13.60;99.90
7658;DHT22;8462;53.156;8.220;2023-03-24T06:35:41;13.60;99.90
7658;DHT22;8462;53.156;8.220;2023-03-24T06:38:13;13.70;99.90
7658;DHT22;8462;53.156;8.220;2023-03-24T06:40:41;14.00;99.90
7658;DHT22;8462;53.156;8.220;2023-03-24T06:43:08;14.40;99.90
7658;DHT22;8462;53.156;8.220;2023-03-24T06:45:37;14.80;99.90
7658;DHT22;8462;53.156;8.220;2023-03-24T06:48:06;15.00;99.90
7658;DHT22;8462;53.156;8.220;2023-03-24T06:50:33;15.10;99.10
7658;DHT22;8462;53.156;8.220;2023-03-24T06:53:06;15.10;99.90
7658;DHT22;8462;53.156;8.220;2023-03-24T06:55:36;15.30;99.60
7658;DHT22;8462;53.156;8.220;2023-03-24T06:58:04;15.40;98.00
7658;DHT22;8462;53.156;8.220;2023-03-24T07:00:39;15.40;98.00
7658;DHT22;8462;53.156;8.220;2023-03-24T07:03:30;15.40;97.60
7658;DHT22;8462;53.156;8.220;2023-03-24T07:06:16;15.30;96.50
7658;DHT22;8462;53.156;8.220;2023-03-24T07:08:47;15.30;97.30
7658;DHT22;8462;53.156;8.220;2023-03-24T07:11:16;15.40;95.10
7658;DHT22;8462;53.156;8.220;2023-03-24T07:13:50;15.40;94.60
7658;DHT22;8462;53.156;8.220;2023-03-24T07:16:17;15.40;94.20
7658;DHT22;8462;53.156;8.220;2023-03-24T07:18:48;15.20;93.40
7658;DHT22;8462;53.156;8.220;2023-03-24T07:21:15;15.00;93.60
7658;DHT22;8462;53.156;8.220;2023-03-24T07:23:43;14.90;93.20
7658;DHT22;8462;53.156;8.220;2023-03-24T07:26:16;14.90;93.20
7658;DHT22;8462;53.156;8.220;2023-03-24T07:28:46;14.80;92.60
7658;DHT22;8462;53.156;8.220;2023-03-24T07:31:39;14.70;92.70
7658;DHT22;8462;53.156;8.220;2023-03-24T07:34:09;14.60;92.30
7658;DHT22;8462;53.156;8.220;2023-03-24T07:36:38;14.60;91.70
7658;DHT22;8462;53.156;8.220;2023-03-24T07:39:10;14.50;92.40
7658;DHT22;8462;53.156;8.220;2023-03-24T07:41:39;14.50;92.40
7658;DHT22;8462;53.156;8.220;2023-03-24T07:44:13;14.50;92.60
7658;DHT22;8462;53.156;8.220;2023-03-24T07:46:48;14.40;92.80
7658;DHT22;8462;53.156;8.220;2023-03-24T07:49:15;14.40;92.70
7658;DHT22;8462;53.156;8.220;2023-03-24T07:51:42;14.40;93.00
7658;DHT22;8462;53.156;8.220;2023-03-24T07:54:27;14.40;92.90
7658;DHT22;8462;53.156;8.220;2023-03-24T07:56:56;14.40;92.00
7658;DHT22;8462;53.156;8.220;2023-03-24T07:59:23;14.40;91.60
7658;DHT22;8462;53.156;8.220;2023-03-24T08:01:51;14.40;92.00
7658;DHT22;8462;53.156;8.220;2023-03-24T08:04:25;14.50;91.90
7658;DHT22;8462;53.156;8.220;2023-03-24T08:07:00;14.50;91.10
7658;DHT22;8462;53.156;8.220;2023-03-24T08:09:28;14.50;91.10
7658;DHT22;8462;53.156;8.220;2023-03-24T08:11:56;14.60;91.40
7658;DHT22;8462;53.156;8.220;2023-03-24T08:14:23;14.70;90.20
7658;DHT22;8462;53.156;8.220;2023-03-24T08:16:50;14.60;89.20
7658;DHT22;8462;53.156;8.220;2023-03-24T08:19:17;14.60;89.20
7658;DHT22;8462;53.156;8.220;2023-03-24T08:21:44;14.60;88.40
7658;DHT22;8462;53.156;8.220;2023-03-24T08:24:11;14.70;88.00
7658;DHT22;8462;53.156;8.220;2023-03-24T08:26:38;14.70;88.20
7658;DHT22;8462;53.156;8.220;2023-03-24T08:29:08;14.80;85.00
7658;DHT22;8462;53.156;8.220;2023-03-24T08:31:36;15.00;83.80
7658;DHT22;8462;53.156;8.220;2023-03-24T08:34:03;15.00;81.30
7658;DHT22;8462;53.156;8.220;2023-03-24T08:36:31;15.10;81.40
7658;DHT22;8462;53.156;8.220;2023-03-24T08:38:59;15.10;80.90
7658;DHT22;8462;53.156;8.220;2023-03-24T08:41:26;15.00;81.10
7658;DHT22;8462;53.156;8.220;2023-03-24T08:43:59;15.00;80.50
7658;DHT22;8462;53.156;8.220;2023-03-24T08:46:30;14.90;80.60
7658;DHT22;8462;53.156;8.220;2023-03-24T08:48:57;14.80;80.80
7658;DHT22;8462;53.156;8.220;2023-03-24T08:51:25;14.90;81.40
7658;DHT22;8462;53.156;8.220;2023-03-24T08:53:53;14.90;81.10
7658;DHT22;8462;53.156;8.220;2023-03-24T08:56:20;14.90;80.60
7658;DHT22;8462;53.156;8.220;2023-03-24T08:58:47;15.00;80.70
7658;DHT22;8462;53.156;8.220;2023-03-24T09:01:16;15.10;79.20
7658;DHT22;8462;53.156;8.220;2023-03-24T09:03:46;15.10;79.20
7658;DHT22;8462;53.156;8.220;2023-03-24T09:06:13;15.10;79.20
7658;DHT22;8462;53.156;8.220;2023-03-24T09:08:41;15.20;79.40
7658;DHT22;8462;53.156;8.220;2023-03-24T09:11:13;15.20;78.50
7658;DHT22;8462;53.156;8.220;2023-03-24T09:13:41;15.20;78.30
7658;DHT22;8462;53.156;8.220;2023-03-24T09:16:08;15.20;78.10
7658;DHT22;8462;53.156;8.220;2023-03-24T09:18:35;15.20;78.00
7658;DHT22;8462;53.156;8.220;2023-03-24T09:21:05;15.20;77.60
7658;DHT22;8462;53.156;8.220;2023-03-24T09:23:32;15.20;78.00
7658;DHT22;8462;53.156;8.220;2023-03-24T09:25:59;15.10;77.50
7658;DHT22;8462;53.156;8.220;2023-03-24T09:28:27;15.00;78.30
7658;DHT22;8462;53.156;8.220;2023-03-24T09:30:58;15.00;78.80
7658;DHT22;8462;53.156;8.220;2023-03-24T09:33:26;15.10;78.50
7658;DHT22;8462;53.156;8.220;2023-03-24T09:35:57;15.10;77.50
7658;DHT22;8462;53.156;8.220;2023-03-24T09:38:26;15.10;77.30
7658;DHT22;8462;53.156;8.220;2023-03-24T09:40:54;15.00;78.00
7658;DHT22;8462;53.156;8.220;2023-03-24T09:43:26;15.00;78.10
7658;DHT22;8462;53.156;8.220;2023-03-24T09:45:58;14.90;79.00
7658;DHT22;8462;53.156;8.220;2023-03-24T09:48:32;14.90;78.80
7658;DHT22;8462;53.156;8.220;2023-03-24T09:51:04;14.90;77.70
7658;DHT22;8462;53.156;8.220;2023-03-24T09:53:36;14.90;77.70
7658;DHT22;8462;53.156;8.220;2023-03-24T09:56:11;14.80;77.70
7658;DHT22;8462;53.156;8.220;2023-03-24T09:58:39;14.70;78.00
7658;DHT22;8462;53.156;8.220;2023-03-24T10:01:12;14.90;79.10
7658;DHT22;8462;53.156;8.220;2023-03-24T10:03:40;15.30;77.30
7658;DHT22;8462;53.156;8.220;2023-03-24T10:06:09;15.40;74.70
7658;DHT22;8462;53.156;8.220;2023-03-24T10:08:40;15.60;73.20
7658;DHT22;8462;53.156;8.220;2023-03-24T10:11:13;15.70;73.20
7658;DHT22;8462;53.156;8.220;2023-03-24T10:13:53;15.70;70.60
7658;DHT22;8462;53.156;8.220;2023-03-24T10:16:27;15.70;69.90
7658;DHT22;8462;53.156;8.220;2023-03-24T10:19:00;15.80;68.50
7658;DHT22;8462;53.156;8.220;2023-03-24T10:21:31;16.00;67.50
7658;DHT22;8462;53.156;8.220;2023-03-24T10:24:07;16.10;67.20
7658;DHT22;8462;53.156;8.220;2023-03-24T10:26:43;16.30;66.30
7658;DHT22;8462;53.156;8.220;2023-03-24T10:29:20;16.50;65.00
7658;DHT22;8462;53.156;8.220;2023-03-24T10:31:51;16.60;64.40
7658;DHT22;8462;53.156;8.220;2023-03-24T10:34:20;16.80;64.00
7658;DHT22;8462;53.156;8.220;2023-03-24T10:36:48;16.90;63.80
7658;DHT22;8462;53.156;8.220;2023-03-24T10:39:18;17.20;63.60
7658;DHT22;8462;53.156;8.220;2023-03-24T10:41:45;17.30;63.10
7658;DHT22;8462;53.156;8.220;2023-03-24T10:44:19;17.50;60.60
7658;DHT22;8462;53.156;8.220;2023-03-24T10:46:48;17.70;59.30
7658;DHT22;8462;53.156;8.220;2023-03-24T10:49:18;17.80;58.60
7658;DHT22;8462;53.156;8.220;2023-03-24T10:51:47;17.90;57.00
7658;DHT22;8462;53.156;8.220;2023-03-24T10:54:20;18.00;58.10
7658;DHT22;8462;53.156;8.220;2023-03-24T10:56:48;18.20;57.50
7658;DHT22;8462;53.156;8.220;2023-03-24T10:59:23;18.20;56.60
7658;DHT22;8462;53.156;8.220;2023-03-24T11:01:57;18.20;55.70
7658;DHT22;8462;53.156;8.220;2023-03-24T11:04:25;18.20;56.50
7658;DHT22;8462;53.156;8.220;2023-03-24T11:07:00;18.10;56.00
7658;DHT22;8462;53.156;8.220;2023-03-24T11:09:40;18.10;57.20
7658;DHT22;8462;53.156;8.220;2023-03-24T11:12:20;18.20;57.90
7658;DHT22;8462;53.156;8.220;2023-03-24T11:14:48;18.20;57.00
7658;DHT22;8462;53.156;8.220;2023-03-24T11:17:15;18.00;57.40
7658;DHT22;8462;53.156;8.220;2023-03-24T11:19:53;17.80;58.00
7658;DHT22;8462;53.156;8.220;2023-03-24T11:22:22;17.60;58.30
7658;DHT22;8462;53.156;8.220;2023-03-24T11:24:53;17.20;59.20
7658;DHT22;8462;53.156;8.220;2023-03-24T11:27:22;17.00;60.30
7658;DHT22;8462;53.156;8.220;2023-03-24T11:29:52;16.80;61.20
7658;DHT22;8462;53.156;8.220;2023-03-24T11:32:22;16.50;62.20
7658;DHT22;8462;53.156;8.220;2023-03-24T11:35:00;16.30;63.30
7658;DHT22;8462;53.156;8.220;2023-03-24T11:37:31;16.20;63.50
7658;DHT22;8462;53.156;8.220;2023-03-24T11:40:19;16.10;63.50
7658;DHT22;8462;53.156;8.220;2023-03-24T11:42:48;16.00;63.20
7658;DHT22;8462;53.156;8.220;2023-03-24T11:45:25;15.90;61.70
7658;DHT22;8462;53.156;8.220;2023-03-24T11:47:55;15.90;62.80
7658;DHT22;8462;53.156;8.220;2023-03-24T11:50:26;15.90;61.80
7658;DHT22;8462;53.156;8.220;2023-03-24T11:53:02;15.90;61.40
7658;DHT22;8462;53.156;8.220;2023-03-24T11:55:39;16.10;60.00
7658;DHT22;8462;53.156;8.220;2023-03-24T11:58:16;16.30;57.90
7658;DHT22;8462;53.156;8.220;2023-03-24T12:00:48;16.50;56.30
7658;DHT22;8462;53.156;8.220;2023-03-24T12:06:26;16.70;54.10
7658;DHT22;8462;53.156;8.220;2023-03-24T12:09:01;16.80;54.00
7658;DHT22;8462;53.156;8.220;2023-03-24T12:11:43;17.00;54.30
7658;DHT22;8462;53.156;8.220;2023-03-24T12:14:18;17.10;53.40
7658;DHT22;8462;53.156;8.220;2023-03-24T12:16:53;17.20;52.70
7658;DHT22;8462;53.156;8.220;2023-03-24T12:19:36;17.30;52.90
7658;DHT22;8462;53.156;8.220;2023-03-24T12:22:17;17.30;52.80
7658;DHT22;8462;53.156;8.220;2023-03-24T12:25:13;17.40;53.40
7658;DHT22;8462;53.156;8.220;2023-03-24T12:27:51;17.50;49.90
7658;DHT22;8462;53.156;8.220;2023-03-24T12:30:26;17.40;50.70
7658;DHT22;8462;53.156;8.220;2023-03-24T12:33:05;17.40;49.80
7658;DHT22;8462;53.156;8.220;2023-03-24T12:35:50;17.20;50.20
7658;DHT22;8462;53.156;8.220;2023-03-24T12:38:33;17.10;50.10
7658;DHT22;8462;53.156;8.220;2023-03-24T12:41:12;17.00;50.10
7658;DHT22;8462;53.156;8.220;2023-03-24T12:43:50;17.00;49.20
7658;DHT22;8462;53.156;8.220;2023-03-24T12:46:30;16.90;50.60
7658;DHT22;8462;53.156;8.220;2023-03-24T12:49:09;16.90;50.60
7658;DHT22;8462;53.156;8.220;2023-03-24T12:51:47;16.90;51.40
7658;DHT22;8462;53.156;8.220;2023-03-24T12:54:26;16.80;52.10
7658;DHT22;8462;53.156;8.220;2023-03-24T12:56:59;16.80;51.30
7658;DHT22;8462;53.156;8.220;2023-03-24T12:59:32;16.70;51.70
7658;DHT22;8462;53.156;8.220;2023-03-24T13:02:10;16.80;52.00
7658;DHT22;8462;53.156;8.220;2023-03-24T13:04:40;16.80;51.10
7658;DHT22;8462;53.156;8.220;2023-03-24T13:07:10;16.70;50.30
7658;DHT22;8462;53.156;8.220;2023-03-24T13:09:45;16.70;50.00
7658;DHT22;8462;53.156;8.220;2023-03-24T13:12:19;16.60;50.20
7658;DHT22;8462;53.156;8.220;2023-03-24T13:14:54;16.60;51.00
7658;DHT22;8462;53.156;8.220;2023-03-24T13:17:26;16.70;52.00
7658;DHT22;8462;53.156;8.220;2023-03-24T13:19:55;16.70;52.20
7658;DHT22;8462;53.156;8.220;2023-03-24T13:22:24;16.80;52.50
7658;DHT22;8462;53.156;8.220;2023-03-24T13:24:53;16.80;52.60
7658;DHT22;8462;53.156;8.220;2023-03-24T13:27:23;16.90;52.70
7658;DHT22;8462;53.156;8.220;2023-03-24T13:30:14;17.10;52.60
7658;DHT22;8462;53.156;8.220;2023-03-24T13:32:46;17.30;52.30
7658;DHT22;8462;53.156;8.220;2023-03-24T13:35:23;17.40;52.60
7658;DHT22;8462;53.156;8.220;2023-03-24T13:37:57;17.40;51.70
7658;DHT22;8462;53.156;8.220;2023-03-24T13:40:27;17.50;52.20
7658;DHT22;8462;53.156;8.220;2023-03-24T13:42:57;17.70;51.70
7658;DHT22;8462;53.156;8.220;2023-03-24T13:45:36;17.80;51.20
7658;DHT22;8462;53.156;8.220;2023-03-24T13:48:24;18.00;50.80
7658;DHT22;8462;53.156;8.220;2023-03-24T13:50:56;18.10;50.90
7658;DHT22;8462;53.156;8.220;2023-03-24T13:53:36;18.20;50.70
7658;DHT22;8462;53.156;8.220;2023-03-24T13:56:05;18.20;50.50
7658;DHT22;8462;53.156;8.220;2023-03-24T14:01:35;18.20;51.20
7658;DHT22;8462;53.156;8.220;2023-03-24T14:04:25;18.20;51.50
7658;DHT22;8462;53.156;8.220;2023-03-24T14:06:53;18.30;51.10
7658;DHT22;8462;53.156;8.220;2023-03-24T14:09:21;18.20;51.00
7658;DHT22;8462;53.156;8.220;2023-03-24T14:12:07;18.20;51.70
7658;DHT22;8462;53.156;8.220;2023-03-24T14:14:36;18.20;51.30
7658;DHT22;8462;53.156;8.220;2023-03-24T14:17:24;18.20;51.70
7658;DHT22;8462;53.156;8.220;2023-03-24T14:20:10;18.10;52.50
7658;DHT22;8462;53.156;8.220;2023-03-24T14:22:40;18.10;52.80
7658;DHT22;8462;53.156;8.220;2023-03-24T14:25:21;18.30;53.10
7658;DHT22;8462;53.156;8.220;2023-03-24T14:27:50;18.50;51.70
7658;DHT22;8462;53.156;8.220;2023-03-24T14:30:20;18.60;52.30
7658;DHT22;8462;53.156;8.220;2023-03-24T14:32:53;18.70;52.10
7658;DHT22;8462;53.156;8.220;2023-03-24T14:35:39;18.70;51.10
7658;DHT22;8462;53.156;8.220;2023-03-24T14:38:21;18.80;49.50
7658;DHT22;8462;53.156;8.220;2023-03-24T14:40:51;18.90;50.40
7658;DHT22;8462;53.156;8.220;2023-03-24T14:43:23;19.00;50.10
7658;DHT22;8462;53.156;8.220;2023-03-24T14:45:56;19.00;50.30
7658;DHT22;8462;53.156;8.220;2023-03-24T14:48:41;19.00;49.70
7658;DHT22;8462;53.156;8.220;2023-03-24T14:51:21;19.00;49.10
7658;DHT22;8462;53.156;8.220;2023-03-24T14:53:51;19.00;49.00
7658;DHT22;8462;53.156;8.220;2023-03-24T14:56:22;18.90;49.00
7658;DHT22;8462;53.156;8.220;2023-03-24T14:58:52;18.80;49.30
7658;DHT22;8462;53.156;8.220;2023-03-24T15:01:22;18.60;50.10
7658;DHT22;8462;53.156;8.220;2023-03-24T15:03:56;18.50;50.60
7658;DHT22;8462;53.156;8.220;2023-03-24T15:06:26;18.30;51.30
7658;DHT22;8462;53.156;8.220;2023-03-24T15:08:55;18.10;51.90
7658;DHT22;8462;53.156;8.220;2023-03-24T15:11:25;17.90;52.70
7658;DHT22;8462;53.156;8.220;2023-03-24T15:13:54;17.90;53.40
7658;DHT22;8462;53.156;8.220;2023-03-24T15:16:23;17.80;54.80
7658;DHT22;8462;53.156;8.220;2023-03-24T15:18:53;17.70;55.80
7658;DHT22;8462;53.156;8.220;2023-03-24T15:21:27;17.60;56.90
7658;DHT22;8462;53.156;8.220;2023-03-24T15:23:55;17.50;57.80
7658;DHT22;8462;53.156;8.220;2023-03-24T15:26:23;17.40;58.00
7658;DHT22;8462;53.156;8.220;2023-03-24T15:28:57;17.50;57.80
7658;DHT22;8462;53.156;8.220;2023-03-24T15:31:25;17.70;57.70
7658;DHT22;8462;53.156;8.220;2023-03-24T15:34:04;17.70;55.40
7658;DHT22;8462;53.156;8.220;2023-03-24T15:36:37;17.70;55.50
7658;DHT22;8462;53.156;8.220;2023-03-24T15:39:16;17.50;55.40
7658;DHT22;8462;53.156;8.220;2023-03-24T15:41:44;17.20;56.10
7658;DHT22;8462;53.156;8.220;2023-03-24T15:44:16;17.00;56.70
7658;DHT22;8462;53.156;8.220;2023-03-24T15:46:44;16.70;57.50
7658;DHT22;8462;53.156;8.220;2023-03-24T15:49:21;16.50;58.40
7658;DHT22;8462;53.156;8.220;2023-03-24T15:51:50;16.40;59.50
7658;DHT22;8462;53.156;8.220;2023-03-24T15:54:20;16.40;60.00
7658;DHT22;8462;53.156;8.220;2023-03-24T15:57:09;16.40;60.00
7658;DHT22;8462;53.156;8.220;2023-03-24T15:59:44;16.50;60.40
7658;DHT22;8462;53.156;8.220;2023-03-24T16:02:21;16.60;60.50
7658;DHT22;8462;53.156;8.220;2023-03-24T16:04:50;16.60;60.80
7658;DHT22;8462;53.156;8.220;2023-03-24T16:07:31;16.50;61.20
7658;DHT22;8462;53.156;8.220;2023-03-24T16:10:02;16.40;62.20
7658;DHT22;8462;53.156;8.220;2023-03-24T16:12:34;16.30;62.20
7658;DHT22;8462;53.156;8.220;2023-03-24T16:15:02;16.20;62.50
7658;DHT22;8462;53.156;8.220;2023-03-24T16:17:30;16.10;63.40
7658;DHT22;8462;53.156;8.220;2023-03-24T16:19:58;16.00;64.20
7658;DHT22;8462;53.156;8.220;2023-03-24T16:22:25;15.90;64.00
7658;DHT22;8462;53.156;8.220;2023-03-24T16:24:52;15.80;64.40
7658;DHT22;8462;53.156;8.220;2023-03-24T16:27:19;15.70;64.90
7658;DHT22;8462;53.156;8.220;2023-03-24T16:29:46;15.70;65.60
7658;DHT22;8462;53.156;8.220;2023-03-24T16:32:14;15.60;65.80
7658;DHT22;8462;53.156;8.220;2023-03-24T16:34:41;15.50;66.30
7658;DHT22;8462;53.156;8.220;2023-03-24T16:37:10;15.40;66.70
7658;DHT22;8462;53.156;8.220;2023-03-24T16:39:36;15.40;67.10
7658;DHT22;8462;53.156;8.220;2023-03-24T16:42:04;15.40;67.70
7658;DHT22;8462;53.156;8.220;2023-03-24T16:44:30;15.40;68.20
7658;DHT22;8462;53.156;8.220;2023-03-24T16:46:57;15.40;68.40
7658;DHT22;8462;53.156;8.220;2023-03-24T16:49:24;15.40;68.90
7658;DHT22;8462;53.156;8.220;2023-03-24T16:51:51;15.40;69.00
7658;DHT22;8462;53.156;8.220;2023-03-24T16:54:20;15.40;69.10
7658;DHT22;8462;53.156;8.220;2023-03-24T16:56:47;15.30;69.50
7658;DHT22;8462;53.156;8.220;2023-03-24T16:59:14;15.30;69.60